首页
METAR-TAF:

METAR-TAF

机场 :

海參崴國際機場

海參崴, 俄罗斯

纬度: 43-07N, 经度: 131-56E, 海拔: 184米

当前天气观测

该预报发布于33分钟前的23:00 UTC
风速6节,风向
温度 14°C
湿度 67%
气压 995 hPa
能见度10公里或以上

METAR: UHWW 202300Z 10003MPS 9999 NSC 14/08 Q0995 R25L/0///70 NOSIG RMK QFE745

时间: 09:33 (23:33 UTC)

预报

该预报发布于3小时和33分钟前的20:00 UTC
预报有效从20日的 21点(UTC)到 21日的 21点(UTC)
风速6节,风向西南
能見度: 3100
多云层高于1100英尺
轻雾
短暂存在
从 20日的 21点(UTC)到 20日的 23点(UTC)
能見度: 0300
层高于200英尺
成为
从 21日的 00点(UTC)到 21日的 02点(UTC)
能见度10公里或以上
散云层高于3000英尺, 积雨云.
短暂存在
从 21日的 03点(UTC)到 21日的 09点(UTC)
能見度: 4000
散云层高于1100英尺
多云层高于1700英尺, 积雨云.
小阵雨

TAF: UHWW 202000Z 2021/2121 23003MPS 3100 BR BKN011 TEMPO 2021/2023 0300 FG VV002 BECMG 2100/2102 9999 NSW SCT030CB TEMPO 2103/2109 4000 -SHRA SCT011 BKN017CB

超过4000个机场的气象观测和天气预报(METAR&TAF报告)。

可查询的气象台以黄色和红色小点在地图上表示。

将鼠标移到小点上方,可查看气象台名称。

然后点击查看天气观测和预报。

如需切换地图:点击带黑十字的绿色按钮放大地图;点击带横线的绿色按钮缩小地图;或者点击绿色箭头查看邻近地区的地图。


METAR-TAF: